sensor_id;sensor_type;location;lat;lon;timestamp;P1;durP1;ratioP1;P2;durP2;ratioP2
15055;SDS011;7626;42.674;23.284;2022-09-21T00:00:21;1.87;;;1.77;;
15055;SDS011;7626;42.674;23.284;2022-09-21T00:02:48;1.60;;;1.50;;
15055;SDS011;7626;42.674;23.284;2022-09-21T00:05:14;2.47;;;1.90;;
15055;SDS011;7626;42.674;23.284;2022-09-21T00:07:41;2.27;;;1.90;;
15055;SDS011;7626;42.674;23.284;2022-09-21T00:10:08;2.23;;;1.80;;
15055;SDS011;7626;42.674;23.284;2022-09-21T00:12:36;2.40;;;1.97;;
15055;SDS011;7626;42.674;23.284;2022-09-21T00:15:04;2.63;;;1.90;;
15055;SDS011;7626;42.674;23.284;2022-09-21T00:17:30;2.90;;;1.83;;
15055;SDS011;7626;42.674;23.284;2022-09-21T00:19:57;1.93;;;1.80;;
15055;SDS011;7626;42.674;23.284;2022-09-21T00:22:25;1.90;;;1.80;;
15055;SDS011;7626;42.674;23.284;2022-09-21T00:24:51;2.10;;;1.90;;
15055;SDS011;7626;42.674;23.284;2022-09-21T00:27:18;2.47;;;1.90;;
15055;SDS011;7626;42.674;23.284;2022-09-21T00:29:46;2.10;;;1.90;;
15055;SDS011;7626;42.674;23.284;2022-09-21T00:32:12;1.80;;;1.70;;
15055;SDS011;7626;42.674;23.284;2022-09-21T00:34:39;3.53;;;1.87;;
15055;SDS011;7626;42.674;23.284;2022-09-21T00:37:06;2.47;;;2.10;;
15055;SDS011;7626;42.674;23.284;2022-09-21T00:39:33;2.00;;;1.90;;
15055;SDS011;7626;42.674;23.284;2022-09-21T00:41:59;2.00;;;1.80;;
15055;SDS011;7626;42.674;23.284;2022-09-21T00:44:30;2.80;;;1.80;;
15055;SDS011;7626;42.674;23.284;2022-09-21T00:47:00;2.03;;;1.83;;
15055;SDS011;7626;42.674;23.284;2022-09-21T00:49:27;1.90;;;1.80;;
15055;SDS011;7626;42.674;23.284;2022-09-21T00:51:54;2.23;;;1.90;;
15055;SDS011;7626;42.674;23.284;2022-09-21T00:54:22;2.30;;;2.10;;
15055;SDS011;7626;42.674;23.284;2022-09-21T00:56:49;2.33;;;2.10;;
15055;SDS011;7626;42.674;23.284;2022-09-21T00:59:16;2.20;;;2.00;;
15055;SDS011;7626;42.674;23.284;2022-09-21T01:01:44;2.20;;;2.00;;
15055;SDS011;7626;42.674;23.284;2022-09-21T01:04:12;2.13;;;1.93;;
15055;SDS011;7626;42.674;23.284;2022-09-21T01:06:39;2.80;;;2.50;;
15055;SDS011;7626;42.674;23.284;2022-09-21T01:09:06;3.17;;;2.87;;
15055;SDS011;7626;42.674;23.284;2022-09-21T01:11:33;2.83;;;2.53;;
15055;SDS011;7626;42.674;23.284;2022-09-21T01:14:10;3.07;;;2.77;;
15055;SDS011;7626;42.674;23.284;2022-09-21T01:16:39;4.10;;;2.90;;
15055;SDS011;7626;42.674;23.284;2022-09-21T01:19:13;3.60;;;3.30;;
15055;SDS011;7626;42.674;23.284;2022-09-21T01:21:42;3.73;;;3.43;;
15055;SDS011;7626;42.674;23.284;2022-09-21T01:24:21;4.00;;;3.30;;
15055;SDS011;7626;42.674;23.284;2022-09-21T01:29:40;3.77;;;3.43;;
15055;SDS011;7626;42.674;23.284;2022-09-21T01:32:10;3.70;;;3.40;;
15055;SDS011;7626;42.674;23.284;2022-09-21T01:34:39;3.90;;;3.50;;
15055;SDS011;7626;42.674;23.284;2022-09-21T01:37:09;3.80;;;3.40;;
15055;SDS011;7626;42.674;23.284;2022-09-21T01:39:37;3.60;;;3.27;;
15055;SDS011;7626;42.674;23.284;2022-09-21T01:42:05;3.83;;;3.30;;
15055;SDS011;7626;42.674;23.284;2022-09-21T01:44:33;3.60;;;3.30;;
15055;SDS011;7626;42.674;23.284;2022-09-21T01:47:02;3.93;;;3.43;;
15055;SDS011;7626;42.674;23.284;2022-09-21T01:49:30;3.40;;;3.10;;
15055;SDS011;7626;42.674;23.284;2022-09-21T01:51:59;3.20;;;3.00;;
15055;SDS011;7626;42.674;23.284;2022-09-21T01:54:27;3.73;;;2.90;;
15055;SDS011;7626;42.674;23.284;2022-09-21T01:56:57;3.80;;;3.20;;
15055;SDS011;7626;42.674;23.284;2022-09-21T01:59:28;3.60;;;3.30;;
15055;SDS011;7626;42.674;23.284;2022-09-21T02:01:57;3.53;;;2.90;;
15055;SDS011;7626;42.674;23.284;2022-09-21T02:04:26;3.93;;;3.10;;
15055;SDS011;7626;42.674;23.284;2022-09-21T02:06:53;3.40;;;3.10;;
15055;SDS011;7626;42.674;23.284;2022-09-21T02:09:20;4.27;;;2.83;;
15055;SDS011;7626;42.674;23.284;2022-09-21T02:11:46;2.83;;;2.63;;
15055;SDS011;7626;42.674;23.284;2022-09-21T02:14:14;3.90;;;3.10;;
15055;SDS011;7626;42.674;23.284;2022-09-21T02:16:43;4.13;;;3.13;;
15055;SDS011;7626;42.674;23.284;2022-09-21T02:19:11;4.27;;;3.37;;
15055;SDS011;7626;42.674;23.284;2022-09-21T02:21:44;3.53;;;3.17;;
15055;SDS011;7626;42.674;23.284;2022-09-21T02:24:17;3.33;;;3.03;;
15055;SDS011;7626;42.674;23.284;2022-09-21T02:26:47;3.00;;;2.80;;
15055;SDS011;7626;42.674;23.284;2022-09-21T02:29:17;3.30;;;3.00;;
15055;SDS011;7626;42.674;23.284;2022-09-21T02:31:46;3.30;;;3.03;;
15055;SDS011;7626;42.674;23.284;2022-09-21T02:34:15;3.43;;;3.13;;
15055;SDS011;7626;42.674;23.284;2022-09-21T02:36:46;3.70;;;3.20;;
15055;SDS011;7626;42.674;23.284;2022-09-21T02:39:14;3.40;;;3.10;;
15055;SDS011;7626;42.674;23.284;2022-09-21T02:41:42;3.53;;;3.23;;
15055;SDS011;7626;42.674;23.284;2022-09-21T02:44:12;3.97;;;3.20;;
15055;SDS011;7626;42.674;23.284;2022-09-21T02:46:40;3.60;;;3.23;;
15055;SDS011;7626;42.674;23.284;2022-09-21T02:49:09;3.20;;;2.90;;
15055;SDS011;7626;42.674;23.284;2022-09-21T02:51:37;4.20;;;3.10;;
15055;SDS011;7626;42.674;23.284;2022-09-21T02:54:07;3.40;;;3.10;;
15055;SDS011;7626;42.674;23.284;2022-09-21T02:56:36;3.10;;;2.80;;
15055;SDS011;7626;42.674;23.284;2022-09-21T02:59:03;3.33;;;3.03;;
15055;SDS011;7626;42.674;23.284;2022-09-21T03:01:31;2.90;;;2.60;;
15055;SDS011;7626;42.674;23.284;2022-09-21T03:03:58;4.43;;;3.53;;
15055;SDS011;7626;42.674;23.284;2022-09-21T03:06:25;3.33;;;2.93;;
15055;SDS011;7626;42.674;23.284;2022-09-21T03:08:51;4.10;;;3.00;;
15055;SDS011;7626;42.674;23.284;2022-09-21T03:11:19;5.13;;;3.30;;
15055;SDS011;7626;42.674;23.284;2022-09-21T03:13:45;3.07;;;2.80;;
15055;SDS011;7626;42.674;23.284;2022-09-21T03:16:12;3.83;;;2.90;;
15055;SDS011;7626;42.674;23.284;2022-09-21T03:18:38;3.67;;;3.10;;
15055;SDS011;7626;42.674;23.284;2022-09-21T03:21:08;3.27;;;2.97;;
15055;SDS011;7626;42.674;23.284;2022-09-21T03:23:35;3.40;;;3.00;;
15055;SDS011;7626;42.674;23.284;2022-09-21T03:26:02;3.50;;;3.20;;
15055;SDS011;7626;42.674;23.284;2022-09-21T03:28:29;3.47;;;2.80;;
15055;SDS011;7626;42.674;23.284;2022-09-21T03:30:56;3.00;;;2.70;;
15055;SDS011;7626;42.674;23.284;2022-09-21T03:33:22;3.57;;;3.27;;
15055;SDS011;7626;42.674;23.284;2022-09-21T03:35:50;3.43;;;3.03;;
15055;SDS011;7626;42.674;23.284;2022-09-21T03:38:17;4.10;;;3.50;;
15055;SDS011;7626;42.674;23.284;2022-09-21T03:40:44;4.30;;;3.90;;
15055;SDS011;7626;42.674;23.284;2022-09-21T03:43:11;6.40;;;3.37;;
15055;SDS011;7626;42.674;23.284;2022-09-21T03:45:39;4.87;;;3.50;;
15055;SDS011;7626;42.674;23.284;2022-09-21T03:48:06;4.37;;;3.27;;
15055;SDS011;7626;42.674;23.284;2022-09-21T03:50:32;5.43;;;3.80;;
15055;SDS011;7626;42.674;23.284;2022-09-21T03:52:59;4.97;;;3.47;;
15055;SDS011;7626;42.674;23.284;2022-09-21T03:55:25;3.77;;;3.47;;
15055;SDS011;7626;42.674;23.284;2022-09-21T03:57:54;4.27;;;3.77;;
15055;SDS011;7626;42.674;23.284;2022-09-21T04:00:20;3.90;;;3.60;;
15055;SDS011;7626;42.674;23.284;2022-09-21T04:02:48;5.50;;;4.20;;
15055;SDS011;7626;42.674;23.284;2022-09-21T04:05:15;4.73;;;4.17;;
15055;SDS011;7626;42.674;23.284;2022-09-21T04:07:42;7.00;;;3.60;;
15055;SDS011;7626;42.674;23.284;2022-09-21T04:10:10;4.47;;;3.87;;
15055;SDS011;7626;42.674;23.284;2022-09-21T04:12:38;9.17;;;3.57;;
15055;SDS011;7626;42.674;23.284;2022-09-21T04:15:05;4.43;;;3.57;;
15055;SDS011;7626;42.674;23.284;2022-09-21T04:17:32;5.30;;;3.53;;
15055;SDS011;7626;42.674;23.284;2022-09-21T04:20:00;4.00;;;3.60;;
15055;SDS011;7626;42.674;23.284;2022-09-21T04:22:27;4.57;;;4.07;;
15055;SDS011;7626;42.674;23.284;2022-09-21T04:24:53;4.50;;;3.60;;
15055;SDS011;7626;42.674;23.284;2022-09-21T04:27:20;5.77;;;3.87;;
15055;SDS011;7626;42.674;23.284;2022-09-21T04:29:46;4.00;;;3.40;;
15055;SDS011;7626;42.674;23.284;2022-09-21T04:32:13;3.60;;;3.30;;
15055;SDS011;7626;42.674;23.284;2022-09-21T04:34:45;4.83;;;3.10;;
15055;SDS011;7626;42.674;23.284;2022-09-21T04:37:13;3.60;;;3.17;;
15055;SDS011;7626;42.674;23.284;2022-09-21T04:39:42;5.77;;;3.00;;
15055;SDS011;7626;42.674;23.284;2022-09-21T04:42:08;5.13;;;3.33;;
15055;SDS011;7626;42.674;23.284;2022-09-21T04:44:35;3.97;;;2.93;;
15055;SDS011;7626;42.674;23.284;2022-09-21T04:47:02;4.50;;;2.93;;
15055;SDS011;7626;42.674;23.284;2022-09-21T04:49:29;4.83;;;3.40;;
15055;SDS011;7626;42.674;23.284;2022-09-21T04:51:55;4.80;;;3.43;;
15055;SDS011;7626;42.674;23.284;2022-09-21T04:54:23;7.67;;;4.20;;
15055;SDS011;7626;42.674;23.284;2022-09-21T04:56:50;11.27;;;4.03;;
15055;SDS011;7626;42.674;23.284;2022-09-21T04:59:16;6.67;;;3.67;;
15055;SDS011;7626;42.674;23.284;2022-09-21T05:01:43;10.77;;;3.80;;
15055;SDS011;7626;42.674;23.284;2022-09-21T05:04:09;6.60;;;3.23;;
15055;SDS011;7626;42.674;23.284;2022-09-21T05:06:36;6.13;;;2.73;;
15055;SDS011;7626;42.674;23.284;2022-09-21T05:09:02;5.80;;;3.47;;
15055;SDS011;7626;42.674;23.284;2022-09-21T05:11:48;4.83;;;2.93;;
15055;SDS011;7626;42.674;23.284;2022-09-21T05:14:15;5.33;;;3.17;;
15055;SDS011;7626;42.674;23.284;2022-09-21T05:16:42;6.50;;;3.87;;
15055;SDS011;7626;42.674;23.284;2022-09-21T05:19:08;7.07;;;3.23;;
15055;SDS011;7626;42.674;23.284;2022-09-21T05:21:35;4.63;;;3.87;;
15055;SDS011;7626;42.674;23.284;2022-09-21T05:24:01;5.87;;;4.43;;
15055;SDS011;7626;42.674;23.284;2022-09-21T05:26:28;9.13;;;6.50;;
15055;SDS011;7626;42.674;23.284;2022-09-21T05:28:56;10.17;;;6.00;;
15055;SDS011;7626;42.674;23.284;2022-09-21T05:31:29;9.13;;;7.20;;
15055;SDS011;7626;42.674;23.284;2022-09-21T05:33:58;9.73;;;5.97;;
15055;SDS011;7626;42.674;23.284;2022-09-21T05:36:30;8.60;;;5.70;;
15055;SDS011;7626;42.674;23.284;2022-09-21T05:39:00;11.07;;;6.17;;
15055;SDS011;7626;42.674;23.284;2022-09-21T05:41:27;8.33;;;5.83;;
15055;SDS011;7626;42.674;23.284;2022-09-21T05:43:54;9.17;;;6.20;;
15055;SDS011;7626;42.674;23.284;2022-09-21T05:46:25;8.40;;;5.80;;
15055;SDS011;7626;42.674;23.284;2022-09-21T05:48:55;11.17;;;8.70;;
15055;SDS011;7626;42.674;23.284;2022-09-21T05:51:26;11.53;;;9.00;;
15055;SDS011;7626;42.674;23.284;2022-09-21T05:53:56;9.60;;;6.87;;
15055;SDS011;7626;42.674;23.284;2022-09-21T05:56:29;9.90;;;6.30;;
15055;SDS011;7626;42.674;23.284;2022-09-21T05:59:00;7.47;;;6.07;;
15055;SDS011;7626;42.674;23.284;2022-09-21T06:01:33;8.77;;;6.13;;
15055;SDS011;7626;42.674;23.284;2022-09-21T06:04:02;6.07;;;5.30;;
15055;SDS011;7626;42.674;23.284;2022-09-21T06:06:29;8.13;;;5.70;;
15055;SDS011;7626;42.674;23.284;2022-09-21T06:08:55;9.77;;;6.33;;
15055;SDS011;7626;42.674;23.284;2022-09-21T06:11:22;6.80;;;6.07;;
15055;SDS011;7626;42.674;23.284;2022-09-21T06:13:48;9.20;;;6.20;;
15055;SDS011;7626;42.674;23.284;2022-09-21T06:16:15;8.33;;;6.67;;
15055;SDS011;7626;42.674;23.284;2022-09-21T06:18:43;9.97;;;6.30;;
15055;SDS011;7626;42.674;23.284;2022-09-21T06:21:09;13.27;;;7.13;;
15055;SDS011;7626;42.674;23.284;2022-09-21T06:23:36;13.93;;;6.70;;
15055;SDS011;7626;42.674;23.284;2022-09-21T06:26:02;8.33;;;7.10;;
15055;SDS011;7626;42.674;23.284;2022-09-21T06:28:29;14.13;;;6.80;;
15055;SDS011;7626;42.674;23.284;2022-09-21T06:30:55;10.63;;;7.30;;
15055;SDS011;7626;42.674;23.284;2022-09-21T06:33:22;10.23;;;6.83;;
15055;SDS011;7626;42.674;23.284;2022-09-21T06:35:54;12.47;;;7.60;;
15055;SDS011;7626;42.674;23.284;2022-09-21T06:38:20;10.77;;;8.00;;
15055;SDS011;7626;42.674;23.284;2022-09-21T06:40:47;10.73;;;7.17;;
15055;SDS011;7626;42.674;23.284;2022-09-21T06:43:14;11.50;;;6.97;;
15055;SDS011;7626;42.674;23.284;2022-09-21T06:45:41;11.13;;;6.70;;
15055;SDS011;7626;42.674;23.284;2022-09-21T06:48:07;11.57;;;6.40;;
15055;SDS011;7626;42.674;23.284;2022-09-21T06:50:34;8.73;;;5.60;;
15055;SDS011;7626;42.674;23.284;2022-09-21T06:53:02;7.27;;;5.60;;
15055;SDS011;7626;42.674;23.284;2022-09-21T06:55:29;6.57;;;5.23;;
15055;SDS011;7626;42.674;23.284;2022-09-21T06:57:58;5.80;;;4.50;;
15055;SDS011;7626;42.674;23.284;2022-09-21T07:00:25;7.00;;;3.77;;
15055;SDS011;7626;42.674;23.284;2022-09-21T07:02:51;3.53;;;3.23;;
15055;SDS011;7626;42.674;23.284;2022-09-21T07:05:18;3.93;;;2.93;;
15055;SDS011;7626;42.674;23.284;2022-09-21T07:07:44;3.77;;;2.60;;
15055;SDS011;7626;42.674;23.284;2022-09-21T07:10:12;3.33;;;2.20;;
15055;SDS011;7626;42.674;23.284;2022-09-21T07:12:39;2.60;;;2.40;;
15055;SDS011;7626;42.674;23.284;2022-09-21T07:15:06;5.27;;;2.90;;
15055;SDS011;7626;42.674;23.284;2022-09-21T07:17:35;4.07;;;2.70;;
15055;SDS011;7626;42.674;23.284;2022-09-21T07:20:02;4.47;;;2.23;;
15055;SDS011;7626;42.674;23.284;2022-09-21T07:22:29;3.07;;;2.10;;
15055;SDS011;7626;42.674;23.284;2022-09-21T07:24:56;2.30;;;2.10;;
15055;SDS011;7626;42.674;23.284;2022-09-21T07:27:24;3.30;;;1.97;;
15055;SDS011;7626;42.674;23.284;2022-09-21T07:29:51;3.23;;;2.30;;
15055;SDS011;7626;42.674;23.284;2022-09-21T07:32:18;4.23;;;2.33;;
15055;SDS011;7626;42.674;23.284;2022-09-21T07:34:44;3.23;;;2.37;;
15055;SDS011;7626;42.674;23.284;2022-09-21T07:37:11;2.97;;;2.23;;
15055;SDS011;7626;42.674;23.284;2022-09-21T07:39:37;3.97;;;2.20;;
15055;SDS011;7626;42.674;23.284;2022-09-21T07:42:04;2.97;;;2.07;;
15055;SDS011;7626;42.674;23.284;2022-09-21T07:44:32;3.30;;;2.20;;
15055;SDS011;7626;42.674;23.284;2022-09-21T07:46:58;2.50;;;2.30;;
15055;SDS011;7626;42.674;23.284;2022-09-21T07:49:25;2.60;;;2.23;;
15055;SDS011;7626;42.674;23.284;2022-09-21T07:51:52;3.53;;;2.20;;
15055;SDS011;7626;42.674;23.284;2022-09-21T07:54:18;2.77;;;2.57;;
15055;SDS011;7626;42.674;23.284;2022-09-21T07:56:45;4.40;;;2.60;;
15055;SDS011;7626;42.674;23.284;2022-09-21T07:59:33;3.57;;;2.30;;
15055;SDS011;7626;42.674;23.284;2022-09-21T08:01:58;2.10;;;2.00;;
15055;SDS011;7626;42.674;23.284;2022-09-21T08:04:25;2.10;;;1.90;;
15055;SDS011;7626;42.674;23.284;2022-09-21T08:06:51;4.60;;;2.07;;
15055;SDS011;7626;42.674;23.284;2022-09-21T08:09:18;2.60;;;2.20;;
15055;SDS011;7626;42.674;23.284;2022-09-21T08:11:44;4.93;;;2.47;;
15055;SDS011;7626;42.674;23.284;2022-09-21T08:14:11;4.37;;;2.13;;
15055;SDS011;7626;42.674;23.284;2022-09-21T08:16:44;2.07;;;1.87;;
15055;SDS011;7626;42.674;23.284;2022-09-21T08:19:12;2.37;;;2.17;;
15055;SDS011;7626;42.674;23.284;2022-09-21T08:21:38;2.97;;;2.10;;
15055;SDS011;7626;42.674;23.284;2022-09-21T08:24:05;2.70;;;2.10;;
15055;SDS011;7626;42.674;23.284;2022-09-21T08:26:31;2.97;;;2.00;;
15055;SDS011;7626;42.674;23.284;2022-09-21T08:28:59;2.40;;;2.07;;
15055;SDS011;7626;42.674;23.284;2022-09-21T08:31:25;2.30;;;1.90;;
15055;SDS011;7626;42.674;23.284;2022-09-21T08:33:53;2.47;;;2.00;;
15055;SDS011;7626;42.674;23.284;2022-09-21T08:36:21;2.30;;;1.97;;
15055;SDS011;7626;42.674;23.284;2022-09-21T08:38:48;1.90;;;1.80;;
15055;SDS011;7626;42.674;23.284;2022-09-21T08:41:16;3.47;;;2.10;;
15055;SDS011;7626;42.674;23.284;2022-09-21T08:43:44;2.93;;;1.97;;
15055;SDS011;7626;42.674;23.284;2022-09-21T08:46:15;2.50;;;2.27;;
15055;SDS011;7626;42.674;23.284;2022-09-21T08:48:43;3.07;;;2.33;;
15055;SDS011;7626;42.674;23.284;2022-09-21T08:51:14;3.83;;;2.40;;
15055;SDS011;7626;42.674;23.284;2022-09-21T08:53:42;2.97;;;2.10;;
15055;SDS011;7626;42.674;23.284;2022-09-21T08:56:09;2.77;;;2.00;;
15055;SDS011;7626;42.674;23.284;2022-09-21T08:58:36;3.37;;;2.00;;
15055;SDS011;7626;42.674;23.284;2022-09-21T09:01:07;4.20;;;1.97;;
15055;SDS011;7626;42.674;23.284;2022-09-21T09:03:44;3.53;;;2.13;;
15055;SDS011;7626;42.674;23.284;2022-09-21T09:06:18;2.73;;;2.00;;
15055;SDS011;7626;42.674;23.284;2022-09-21T09:08:50;4.43;;;2.30;;
15055;SDS011;7626;42.674;23.284;2022-09-21T09:11:28;2.93;;;2.20;;
15055;SDS011;7626;42.674;23.284;2022-09-21T09:14:19;2.13;;;1.97;;
15055;SDS011;7626;42.674;23.284;2022-09-21T09:16:52;2.33;;;2.13;;
15055;SDS011;7626;42.674;23.284;2022-09-21T09:19:25;2.43;;;2.00;;
15055;SDS011;7626;42.674;23.284;2022-09-21T09:21:54;2.50;;;2.00;;
15055;SDS011;7626;42.674;23.284;2022-09-21T09:24:26;1.67;;;1.57;;
15055;SDS011;7626;42.674;23.284;2022-09-21T09:26:56;2.43;;;1.90;;
15055;SDS011;7626;42.674;23.284;2022-09-21T09:29:26;10.43;;;2.10;;
15055;SDS011;7626;42.674;23.284;2022-09-21T09:31:54;4.20;;;1.77;;
15055;SDS011;7626;42.674;23.284;2022-09-21T09:34:22;2.33;;;1.90;;
15055;SDS011;7626;42.674;23.284;2022-09-21T09:36:51;5.03;;;2.00;;
15055;SDS011;7626;42.674;23.284;2022-09-21T09:39:21;1.77;;;1.67;;
15055;SDS011;7626;42.674;23.284;2022-09-21T09:44:44;1.60;;;1.50;;
15055;SDS011;7626;42.674;23.284;2022-09-21T09:47:18;2.53;;;1.87;;
15055;SDS011;7626;42.674;23.284;2022-09-21T09:49:52;4.50;;;1.87;;
15055;SDS011;7626;42.674;23.284;2022-09-21T09:52:21;1.80;;;1.70;;
15055;SDS011;7626;42.674;23.284;2022-09-21T09:54:49;2.37;;;1.60;;
15055;SDS011;7626;42.674;23.284;2022-09-21T09:57:25;2.27;;;1.60;;
15055;SDS011;7626;42.674;23.284;2022-09-21T09:59:52;2.83;;;1.80;;
15055;SDS011;7626;42.674;23.284;2022-09-21T10:02:20;2.00;;;1.80;;
15055;SDS011;7626;42.674;23.284;2022-09-21T10:04:54;4.17;;;1.87;;
15055;SDS011;7626;42.674;23.284;2022-09-21T10:07:28;2.10;;;1.60;;
15055;SDS011;7626;42.674;23.284;2022-09-21T10:09:59;3.27;;;1.80;;
15055;SDS011;7626;42.674;23.284;2022-09-21T10:12:26;2.60;;;1.73;;
15055;SDS011;7626;42.674;23.284;2022-09-21T10:14:53;5.30;;;1.57;;
15055;SDS011;7626;42.674;23.284;2022-09-21T10:17:22;3.90;;;1.80;;
15055;SDS011;7626;42.674;23.284;2022-09-21T10:19:50;1.60;;;1.43;;
15055;SDS011;7626;42.674;23.284;2022-09-21T10:22:24;1.53;;;1.40;;
15055;SDS011;7626;42.674;23.284;2022-09-21T10:24:50;2.37;;;1.70;;
15055;SDS011;7626;42.674;23.284;2022-09-21T10:27:20;1.60;;;1.50;;
15055;SDS011;7626;42.674;23.284;2022-09-21T10:29:48;3.57;;;1.70;;
15055;SDS011;7626;42.674;23.284;2022-09-21T10:32:18;3.07;;;1.33;;
15055;SDS011;7626;42.674;23.284;2022-09-21T10:34:59;2.63;;;1.47;;
15055;SDS011;7626;42.674;23.284;2022-09-21T10:37:26;1.87;;;1.30;;
15055;SDS011;7626;42.674;23.284;2022-09-21T10:39:53;2.27;;;1.20;;
15055;SDS011;7626;42.674;23.284;2022-09-21T10:42:21;1.30;;;1.20;;
15055;SDS011;7626;42.674;23.284;2022-09-21T10:44:49;3.10;;;1.47;;
15055;SDS011;7626;42.674;23.284;2022-09-21T10:47:17;4.17;;;1.40;;
15055;SDS011;7626;42.674;23.284;2022-09-21T10:49:45;5.23;;;1.60;;
15055;SDS011;7626;42.674;23.284;2022-09-21T10:52:12;2.90;;;1.50;;
15055;SDS011;7626;42.674;23.284;2022-09-21T10:54:39;3.90;;;1.53;;
15055;SDS011;7626;42.674;23.284;2022-09-21T10:57:07;2.70;;;1.60;;
15055;SDS011;7626;42.674;23.284;2022-09-21T10:59:36;3.13;;;1.67;;
15055;SDS011;7626;42.674;23.284;2022-09-21T11:02:22;2.40;;;1.80;;
15055;SDS011;7626;42.674;23.284;2022-09-21T11:04:49;2.27;;;1.33;;
15055;SDS011;7626;42.674;23.284;2022-09-21T11:07:18;3.17;;;1.60;;
15055;SDS011;7626;42.674;23.284;2022-09-21T11:09:49;2.40;;;1.50;;
15055;SDS011;7626;42.674;23.284;2022-09-21T11:12:31;2.90;;;1.50;;
15055;SDS011;7626;42.674;23.284;2022-09-21T11:15:02;3.47;;;1.67;;
15055;SDS011;7626;42.674;23.284;2022-09-21T11:17:35;2.00;;;1.50;;
15055;SDS011;7626;42.674;23.284;2022-09-21T11:20:04;1.10;;;1.00;;
15055;SDS011;7626;42.674;23.284;2022-09-21T11:22:33;1.60;;;1.40;;
15055;SDS011;7626;42.674;23.284;2022-09-21T11:25:03;1.97;;;1.20;;
15055;SDS011;7626;42.674;23.284;2022-09-21T11:27:34;16.53;;;2.27;;
15055;SDS011;7626;42.674;23.284;2022-09-21T11:30:03;13.37;;;2.13;;
15055;SDS011;7626;42.674;23.284;2022-09-21T11:32:35;4.70;;;1.40;;
15055;SDS011;7626;42.674;23.284;2022-09-21T11:35:10;4.00;;;1.30;;
15055;SDS011;7626;42.674;23.284;2022-09-21T11:37:49;4.73;;;2.70;;
15055;SDS011;7626;42.674;23.284;2022-09-21T11:40:23;3.77;;;2.33;;
15055;SDS011;7626;42.674;23.284;2022-09-21T11:42:55;2.13;;;1.70;;
15055;SDS011;7626;42.674;23.284;2022-09-21T11:45:31;4.40;;;2.07;;
15055;SDS011;7626;42.674;23.284;2022-09-21T11:48:03;4.27;;;1.73;;
15055;SDS011;7626;42.674;23.284;2022-09-21T11:50:33;1.97;;;1.67;;
15055;SDS011;7626;42.674;23.284;2022-09-21T11:53:09;7.87;;;2.00;;
15055;SDS011;7626;42.674;23.284;2022-09-21T11:55:45;4.60;;;2.27;;
15055;SDS011;7626;42.674;23.284;2022-09-21T11:58:17;5.83;;;2.10;;
15055;SDS011;7626;42.674;23.284;2022-09-21T12:00:49;2.40;;;1.70;;
15055;SDS011;7626;42.674;23.284;2022-09-21T12:06:16;5.53;;;2.10;;
15055;SDS011;7626;42.674;23.284;2022-09-21T12:08:52;2.83;;;1.80;;
15055;SDS011;7626;42.674;23.284;2022-09-21T12:11:24;4.30;;;2.27;;
15055;SDS011;7626;42.674;23.284;2022-09-21T12:13:55;2.80;;;1.80;;
15055;SDS011;7626;42.674;23.284;2022-09-21T12:16:24;3.43;;;1.70;;
15055;SDS011;7626;42.674;23.284;2022-09-21T12:18:56;3.47;;;1.50;;
15055;SDS011;7626;42.674;23.284;2022-09-21T12:21:24;4.63;;;1.60;;
15055;SDS011;7626;42.674;23.284;2022-09-21T12:23:53;2.60;;;1.97;;
15055;SDS011;7626;42.674;23.284;2022-09-21T12:26:21;6.90;;;4.07;;
15055;SDS011;7626;42.674;23.284;2022-09-21T12:28:49;2.73;;;2.03;;
15055;SDS011;7626;42.674;23.284;2022-09-21T12:31:18;4.67;;;1.97;;
15055;SDS011;7626;42.674;23.284;2022-09-21T12:33:48;3.23;;;2.70;;
15055;SDS011;7626;42.674;23.284;2022-09-21T12:36:17;4.40;;;1.80;;
15055;SDS011;7626;42.674;23.284;2022-09-21T12:38:45;10.63;;;2.50;;
15055;SDS011;7626;42.674;23.284;2022-09-21T12:41:15;8.70;;;2.30;;
15055;SDS011;7626;42.674;23.284;2022-09-21T12:43:43;10.37;;;2.00;;
15055;SDS011;7626;42.674;23.284;2022-09-21T12:46:11;6.37;;;2.07;;
15055;SDS011;7626;42.674;23.284;2022-09-21T12:48:39;9.17;;;2.20;;
15055;SDS011;7626;42.674;23.284;2022-09-21T12:51:09;6.67;;;1.93;;
15055;SDS011;7626;42.674;23.284;2022-09-21T12:53:37;9.87;;;2.20;;
15055;SDS011;7626;42.674;23.284;2022-09-21T12:56:05;7.00;;;1.87;;
15055;SDS011;7626;42.674;23.284;2022-09-21T12:58:38;4.77;;;1.70;;
15055;SDS011;7626;42.674;23.284;2022-09-21T13:01:15;2.13;;;1.70;;
15055;SDS011;7626;42.674;23.284;2022-09-21T13:03:47;4.07;;;2.07;;
15055;SDS011;7626;42.674;23.284;2022-09-21T13:09:20;4.80;;;1.80;;
15055;SDS011;7626;42.674;23.284;2022-09-21T13:11:51;1.87;;;1.77;;
15055;SDS011;7626;42.674;23.284;2022-09-21T13:14:20;2.70;;;1.70;;
15055;SDS011;7626;42.674;23.284;2022-09-21T13:16:52;3.37;;;1.90;;
15055;SDS011;7626;42.674;23.284;2022-09-21T13:19:20;3.47;;;1.60;;
15055;SDS011;7626;42.674;23.284;2022-09-21T13:21:50;2.40;;;1.70;;
15055;SDS011;7626;42.674;23.284;2022-09-21T13:24:40;4.20;;;1.70;;
15055;SDS011;7626;42.674;23.284;2022-09-21T13:27:08;3.97;;;1.73;;
15055;SDS011;7626;42.674;23.284;2022-09-21T13:29:35;2.50;;;1.70;;
15055;SDS011;7626;42.674;23.284;2022-09-21T13:32:03;2.50;;;2.13;;
15055;SDS011;7626;42.674;23.284;2022-09-21T13:34:45;6.10;;;3.23;;
15055;SDS011;7626;42.674;23.284;2022-09-21T13:37:25;4.93;;;3.33;;
15055;SDS011;7626;42.674;23.284;2022-09-21T13:42:46;3.07;;;2.00;;
15055;SDS011;7626;42.674;23.284;2022-09-21T13:47:57;2.80;;;2.13;;
15055;SDS011;7626;42.674;23.284;2022-09-21T13:50:37;3.93;;;2.37;;
15055;SDS011;7626;42.674;23.284;2022-09-21T13:53:06;5.27;;;2.53;;
15055;SDS011;7626;42.674;23.284;2022-09-21T13:55:34;5.37;;;2.50;;
15055;SDS011;7626;42.674;23.284;2022-09-21T13:58:05;14.10;;;3.90;;
15055;SDS011;7626;42.674;23.284;2022-09-21T14:00:33;9.57;;;2.80;;
15055;SDS011;7626;42.674;23.284;2022-09-21T14:03:02;41.30;;;5.83;;
15055;SDS011;7626;42.674;23.284;2022-09-21T14:05:30;6.83;;;3.23;;
15055;SDS011;7626;42.674;23.284;2022-09-21T14:07:58;6.37;;;2.83;;
15055;SDS011;7626;42.674;23.284;2022-09-21T14:10:26;5.47;;;2.60;;
15055;SDS011;7626;42.674;23.284;2022-09-21T14:12:56;9.37;;;3.30;;
15055;SDS011;7626;42.674;23.284;2022-09-21T14:15:35;5.80;;;3.20;;
15055;SDS011;7626;42.674;23.284;2022-09-21T14:18:33;4.77;;;3.30;;
15055;SDS011;7626;42.674;23.284;2022-09-21T14:21:07;6.33;;;3.37;;
15055;SDS011;7626;42.674;23.284;2022-09-21T14:23:34;7.30;;;3.00;;
15055;SDS011;7626;42.674;23.284;2022-09-21T14:26:01;5.10;;;3.07;;
15055;SDS011;7626;42.674;23.284;2022-09-21T14:28:31;3.30;;;2.83;;
15055;SDS011;7626;42.674;23.284;2022-09-21T14:31:02;5.07;;;2.73;;
15055;SDS011;7626;42.674;23.284;2022-09-21T14:33:32;2.70;;;2.50;;
15055;SDS011;7626;42.674;23.284;2022-09-21T14:36:00;4.37;;;2.80;;
15055;SDS011;7626;42.674;23.284;2022-09-21T14:38:34;8.43;;;2.57;;
15055;SDS011;7626;42.674;23.284;2022-09-21T14:41:02;5.50;;;2.37;;
15055;SDS011;7626;42.674;23.284;2022-09-21T14:43:32;4.27;;;2.70;;
15055;SDS011;7626;42.674;23.284;2022-09-21T14:48:48;3.30;;;2.20;;
15055;SDS011;7626;42.674;23.284;2022-09-21T14:51:19;3.03;;;2.67;;
15055;SDS011;7626;42.674;23.284;2022-09-21T14:56:38;3.83;;;3.33;;
15055;SDS011;7626;42.674;23.284;2022-09-21T14:59:12;3.30;;;2.80;;
15055;SDS011;7626;42.674;23.284;2022-09-21T15:01:52;4.03;;;3.23;;
15055;SDS011;7626;42.674;23.284;2022-09-21T15:04:27;6.07;;;3.50;;
15055;SDS011;7626;42.674;23.284;2022-09-21T15:06:57;8.80;;;3.40;;
15055;SDS011;7626;42.674;23.284;2022-09-21T15:12:54;3.50;;;3.10;;
15055;SDS011;7626;42.674;23.284;2022-09-21T15:15:30;3.47;;;3.17;;
15055;SDS011;7626;42.674;23.284;2022-09-21T15:17:58;5.67;;;3.20;;
15055;SDS011;7626;42.674;23.284;2022-09-21T15:20:28;6.50;;;3.10;;
15055;SDS011;7626;42.674;23.284;2022-09-21T15:22:55;4.10;;;2.97;;
15055;SDS011;7626;42.674;23.284;2022-09-21T15:25:22;5.70;;;3.07;;